Hauptseite
METAR-TAF:

METAR-TAF

Flughäfen :

Prague, Tschechien

Breite: 50-12-59N, Länge: 014-23-42E, Höhe: 280 m

Beobachtung

Neuester Wetterbericht von vor 7 Stunden und 28 Minuten, um 13:00 UTC
Wind 7 kt aus Ost
Temperatur -2°C
Luftfeuchtigkeit 100%
Luftdruck 1025 hPa
Sichtweite: 0900 m
Durchbrochene Bewölkung in der Höhe von 200 ft
Nebel

METAR: LKVO 181300Z 09007KT 0900 FG BKN002 M02/M02 Q1025

Zeit: 21:28 (20:28 UTC)


TAF: fehlend

Wetterbeobachtungen und Prognosen von mehr als 4000 Flughäfen (METAR und TAF Bericht).

Die verfügbaren Stationen werden durch gelbe und rote Markierungen auf der Karte dargestellt.

Führen Sie die Maus auf sie, um den Namen der Station zu sehen.

Darauf klicken, um die Beobachtung von Wetterbeobachtungen und Prognosen zu sehen.

Um die Karte zu ändern : klicken Sie auf den grünen Tasten mit einem schwarzen Kreuz Zum Vergrößern, auf den grünen Button mit einem Gedankenstrich zu verkleinern, oder auf die grünen Pfeile für benachbarte Karten.


METAR-TAF: